sensor_id;sensor_type;location;lat;lon;timestamp;P1;durP1;ratioP1;P2;durP2;ratioP2
33780;SDS011;20097;50.832;19.100;2022-07-19T00:03:56;11.40;;;6.68;;
33780;SDS011;20097;50.832;19.100;2022-07-19T00:09:01;10.38;;;7.65;;
33780;SDS011;20097;50.832;19.100;2022-07-19T00:14:08;9.45;;;5.70;;
33780;SDS011;20097;50.832;19.100;2022-07-19T00:19:13;14.98;;;6.47;;
33780;SDS011;20097;50.832;19.100;2022-07-19T00:24:17;12.73;;;6.53;;
33780;SDS011;20097;50.832;19.100;2022-07-19T00:29:23;14.90;;;6.53;;
33780;SDS011;20097;50.832;19.100;2022-07-19T00:34:27;12.88;;;6.35;;
33780;SDS011;20097;50.832;19.100;2022-07-19T00:39:32;13.02;;;6.90;;
33780;SDS011;20097;50.832;19.100;2022-07-19T00:44:37;14.27;;;7.03;;
33780;SDS011;20097;50.832;19.100;2022-07-19T00:49:42;12.45;;;6.60;;
33780;SDS011;20097;50.832;19.100;2022-07-19T00:54:47;9.18;;;6.32;;
33780;SDS011;20097;50.832;19.100;2022-07-19T00:59:58;13.35;;;7.20;;
33780;SDS011;20097;50.832;19.100;2022-07-19T01:05:07;16.05;;;6.55;;
33780;SDS011;20097;50.832;19.100;2022-07-19T01:10:14;8.98;;;5.82;;
33780;SDS011;20097;50.832;19.100;2022-07-19T01:15:21;11.48;;;6.10;;
33780;SDS011;20097;50.832;19.100;2022-07-19T01:20:30;10.88;;;6.55;;
33780;SDS011;20097;50.832;19.100;2022-07-19T01:25:36;13.23;;;6.68;;
33780;SDS011;20097;50.832;19.100;2022-07-19T01:30:41;11.75;;;6.20;;
33780;SDS011;20097;50.832;19.100;2022-07-19T01:35:54;10.48;;;6.72;;
33780;SDS011;20097;50.832;19.100;2022-07-19T01:41:03;11.85;;;6.43;;
33780;SDS011;20097;50.832;19.100;2022-07-19T01:46:11;12.43;;;6.30;;
33780;SDS011;20097;50.832;19.100;2022-07-19T01:51:15;10.18;;;6.00;;
33780;SDS011;20097;50.832;19.100;2022-07-19T01:56:21;10.80;;;5.73;;
33780;SDS011;20097;50.832;19.100;2022-07-19T02:01:25;12.75;;;6.40;;
33780;SDS011;20097;50.832;19.100;2022-07-19T02:06:33;10.48;;;7.18;;
33780;SDS011;20097;50.832;19.100;2022-07-19T02:11:42;9.75;;;6.03;;
33780;SDS011;20097;50.832;19.100;2022-07-19T02:16:49;12.48;;;6.75;;
33780;SDS011;20097;50.832;19.100;2022-07-19T02:21:53;13.82;;;6.53;;
33780;SDS011;20097;50.832;19.100;2022-07-19T02:27:03;13.73;;;7.68;;
33780;SDS011;20097;50.832;19.100;2022-07-19T02:32:07;17.25;;;7.63;;
33780;SDS011;20097;50.832;19.100;2022-07-19T02:37:15;11.65;;;6.30;;
33780;SDS011;20097;50.832;19.100;2022-07-19T02:42:21;13.68;;;6.53;;
33780;SDS011;20097;50.832;19.100;2022-07-19T02:47:31;11.68;;;6.70;;
33780;SDS011;20097;50.832;19.100;2022-07-19T02:52:36;12.93;;;6.57;;
33780;SDS011;20097;50.832;19.100;2022-07-19T02:57:42;12.65;;;6.65;;
33780;SDS011;20097;50.832;19.100;2022-07-19T03:02:52;12.02;;;6.03;;
33780;SDS011;20097;50.832;19.100;2022-07-19T03:07:56;19.90;;;7.40;;
33780;SDS011;20097;50.832;19.100;2022-07-19T03:13:02;14.82;;;6.65;;
33780;SDS011;20097;50.832;19.100;2022-07-19T03:18:06;11.43;;;6.60;;
33780;SDS011;20097;50.832;19.100;2022-07-19T03:23:16;12.43;;;7.38;;
33780;SDS011;20097;50.832;19.100;2022-07-19T03:28:22;16.95;;;7.00;;
33780;SDS011;20097;50.832;19.100;2022-07-19T03:33:27;12.43;;;6.65;;
33780;SDS011;20097;50.832;19.100;2022-07-19T03:38:32;8.02;;;6.40;;
33780;SDS011;20097;50.832;19.100;2022-07-19T03:43:38;11.52;;;6.05;;
33780;SDS011;20097;50.832;19.100;2022-07-19T03:48:57;14.18;;;6.80;;
33780;SDS011;20097;50.832;19.100;2022-07-19T03:54:07;14.88;;;7.65;;
33780;SDS011;20097;50.832;19.100;2022-07-19T03:59:13;16.38;;;7.60;;
33780;SDS011;20097;50.832;19.100;2022-07-19T04:04:23;11.95;;;7.03;;
33780;SDS011;20097;50.832;19.100;2022-07-19T04:09:31;13.95;;;7.35;;
33780;SDS011;20097;50.832;19.100;2022-07-19T04:14:36;13.02;;;7.20;;
33780;SDS011;20097;50.832;19.100;2022-07-19T04:19:41;13.77;;;7.03;;
33780;SDS011;20097;50.832;19.100;2022-07-19T04:24:46;12.63;;;6.90;;
33780;SDS011;20097;50.832;19.100;2022-07-19T04:29:51;13.18;;;7.15;;
33780;SDS011;20097;50.832;19.100;2022-07-19T04:34:59;13.50;;;6.20;;
33780;SDS011;20097;50.832;19.100;2022-07-19T04:40:05;13.57;;;6.88;;
33780;SDS011;20097;50.832;19.100;2022-07-19T04:45:15;11.13;;;6.90;;
33780;SDS011;20097;50.832;19.100;2022-07-19T04:50:20;13.38;;;7.78;;
33780;SDS011;20097;50.832;19.100;2022-07-19T04:55:25;10.85;;;7.22;;
33780;SDS011;20097;50.832;19.100;2022-07-19T05:00:31;11.88;;;6.40;;
33780;SDS011;20097;50.832;19.100;2022-07-19T05:05:38;14.40;;;6.68;;
33780;SDS011;20097;50.832;19.100;2022-07-19T05:10:43;21.02;;;7.75;;
33780;SDS011;20097;50.832;19.100;2022-07-19T05:15:49;15.73;;;6.82;;
33780;SDS011;20097;50.832;19.100;2022-07-19T05:20:54;15.70;;;7.45;;
33780;SDS011;20097;50.832;19.100;2022-07-19T05:25:58;10.98;;;7.05;;
33780;SDS011;20097;50.832;19.100;2022-07-19T05:31:07;12.23;;;6.90;;
33780;SDS011;20097;50.832;19.100;2022-07-19T05:36:11;12.55;;;6.80;;
33780;SDS011;20097;50.832;19.100;2022-07-19T05:41:16;13.95;;;6.82;;
33780;SDS011;20097;50.832;19.100;2022-07-19T05:46:27;14.10;;;6.75;;
33780;SDS011;20097;50.832;19.100;2022-07-19T05:51:31;14.40;;;6.75;;
33780;SDS011;20097;50.832;19.100;2022-07-19T05:56:36;12.25;;;6.65;;
33780;SDS011;20097;50.832;19.100;2022-07-19T06:01:43;12.13;;;6.60;;
33780;SDS011;20097;50.832;19.100;2022-07-19T06:06:48;14.65;;;6.80;;
33780;SDS011;20097;50.832;19.100;2022-07-19T06:11:52;18.50;;;6.90;;
33780;SDS011;20097;50.832;19.100;2022-07-19T06:16:59;14.38;;;6.20;;
33780;SDS011;20097;50.832;19.100;2022-07-19T06:22:03;15.40;;;6.95;;
33780;SDS011;20097;50.832;19.100;2022-07-19T06:27:07;13.23;;;5.60;;
33780;SDS011;20097;50.832;19.100;2022-07-19T06:32:13;13.18;;;6.22;;
33780;SDS011;20097;50.832;19.100;2022-07-19T06:37:18;14.20;;;6.20;;
33780;SDS011;20097;50.832;19.100;2022-07-19T06:47:28;11.10;;;5.57;;
33780;SDS011;20097;50.832;19.100;2022-07-19T06:52:33;15.75;;;5.95;;
33780;SDS011;20097;50.832;19.100;2022-07-19T06:57:37;12.82;;;6.03;;
33780;SDS011;20097;50.832;19.100;2022-07-19T07:02:43;18.35;;;5.80;;
33780;SDS011;20097;50.832;19.100;2022-07-19T07:07:47;10.30;;;5.95;;
33780;SDS011;20097;50.832;19.100;2022-07-19T07:12:53;11.82;;;5.72;;
33780;SDS011;20097;50.832;19.100;2022-07-19T07:23:03;18.42;;;5.40;;
33780;SDS011;20097;50.832;19.100;2022-07-19T07:28:08;12.20;;;5.72;;
33780;SDS011;20097;50.832;19.100;2022-07-19T07:33:13;12.07;;;5.20;;
33780;SDS011;20097;50.832;19.100;2022-07-19T07:38:18;8.68;;;5.05;;
33780;SDS011;20097;50.832;19.100;2022-07-19T07:43:22;9.95;;;5.07;;
33780;SDS011;20097;50.832;19.100;2022-07-19T07:48:28;15.77;;;5.60;;
33780;SDS011;20097;50.832;19.100;2022-07-19T07:53:32;17.40;;;6.00;;
33780;SDS011;20097;50.832;19.100;2022-07-19T07:58:38;7.80;;;3.90;;
33780;SDS011;20097;50.832;19.100;2022-07-19T08:03:44;8.88;;;3.92;;
33780;SDS011;20097;50.832;19.100;2022-07-19T08:08:48;9.75;;;4.13;;
33780;SDS011;20097;50.832;19.100;2022-07-19T08:13:52;7.45;;;3.90;;
33780;SDS011;20097;50.832;19.100;2022-07-19T08:18:58;5.35;;;3.15;;
33780;SDS011;20097;50.832;19.100;2022-07-19T08:24:03;8.80;;;3.60;;
33780;SDS011;20097;50.832;19.100;2022-07-19T08:29:14;3.35;;;2.65;;
33780;SDS011;20097;50.832;19.100;2022-07-19T08:34:20;2.97;;;2.58;;
33780;SDS011;20097;50.832;19.100;2022-07-19T08:39:24;5.85;;;2.60;;
33780;SDS011;20097;50.832;19.100;2022-07-19T08:49:34;9.40;;;3.07;;
33780;SDS011;20097;50.832;19.100;2022-07-19T08:54:39;4.03;;;2.22;;
33780;SDS011;20097;50.832;19.100;2022-07-19T08:59:43;2.80;;;2.42;;
33780;SDS011;20097;50.832;19.100;2022-07-19T09:04:59;3.03;;;2.65;;
33780;SDS011;20097;50.832;19.100;2022-07-19T09:10:14;5.65;;;2.63;;
33780;SDS011;20097;50.832;19.100;2022-07-19T09:15:20;3.97;;;2.60;;
33780;SDS011;20097;50.832;19.100;2022-07-19T09:20:39;4.00;;;2.20;;
33780;SDS011;20097;50.832;19.100;2022-07-19T09:25:46;8.27;;;2.55;;
33780;SDS011;20097;50.832;19.100;2022-07-19T09:30:54;4.85;;;2.50;;
33780;SDS011;20097;50.832;19.100;2022-07-19T09:36:02;5.57;;;3.25;;
33780;SDS011;20097;50.832;19.100;2022-07-19T09:41:16;4.70;;;2.85;;
33780;SDS011;20097;50.832;19.100;2022-07-19T09:46:28;5.05;;;3.05;;
33780;SDS011;20097;50.832;19.100;2022-07-19T09:51:37;4.65;;;2.70;;
33780;SDS011;20097;50.832;19.100;2022-07-19T09:56:44;6.32;;;2.60;;
33780;SDS011;20097;50.832;19.100;2022-07-19T10:01:52;4.82;;;2.78;;
33780;SDS011;20097;50.832;19.100;2022-07-19T10:06:59;4.22;;;2.22;;
33780;SDS011;20097;50.832;19.100;2022-07-19T10:12:04;6.57;;;2.35;;
33780;SDS011;20097;50.832;19.100;2022-07-19T10:17:18;4.97;;;2.70;;
33780;SDS011;20097;50.832;19.100;2022-07-19T10:22:32;4.57;;;2.20;;
33780;SDS011;20097;50.832;19.100;2022-07-19T10:27:38;2.97;;;2.20;;
33780;SDS011;20097;50.832;19.100;2022-07-19T10:32:44;4.88;;;2.35;;
33780;SDS011;20097;50.832;19.100;2022-07-19T10:37:52;3.38;;;2.67;;
33780;SDS011;20097;50.832;19.100;2022-07-19T10:43:03;4.13;;;2.13;;
33780;SDS011;20097;50.832;19.100;2022-07-19T10:48:10;3.55;;;2.50;;
33780;SDS011;20097;50.832;19.100;2022-07-19T10:59:06;3.05;;;2.65;;
33780;SDS011;20097;50.832;19.100;2022-07-19T11:04:23;5.18;;;2.05;;
33780;SDS011;20097;50.832;19.100;2022-07-19T11:09:39;5.03;;;2.90;;
33780;SDS011;20097;50.832;19.100;2022-07-19T11:14:46;4.47;;;2.40;;
33780;SDS011;20097;50.832;19.100;2022-07-19T11:20:11;3.95;;;2.10;;
33780;SDS011;20097;50.832;19.100;2022-07-19T11:25:24;2.42;;;2.10;;
33780;SDS011;20097;50.832;19.100;2022-07-19T11:30:31;3.72;;;2.33;;
33780;SDS011;20097;50.832;19.100;2022-07-19T11:35:38;3.97;;;2.47;;
33780;SDS011;20097;50.832;19.100;2022-07-19T11:40:43;4.43;;;1.98;;
33780;SDS011;20097;50.832;19.100;2022-07-19T11:45:48;2.70;;;2.50;;
33780;SDS011;20097;50.832;19.100;2022-07-19T11:51:03;4.22;;;2.33;;
33780;SDS011;20097;50.832;19.100;2022-07-19T11:56:18;4.88;;;1.98;;
33780;SDS011;20097;50.832;19.100;2022-07-19T12:01:25;4.28;;;2.20;;
33780;SDS011;20097;50.832;19.100;2022-07-19T12:06:34;4.85;;;2.30;;
33780;SDS011;20097;50.832;19.100;2022-07-19T12:11:42;3.83;;;2.15;;
33780;SDS011;20097;50.832;19.100;2022-07-19T12:16:49;5.38;;;2.50;;
33780;SDS011;20097;50.832;19.100;2022-07-19T12:22:27;1.88;;;1.67;;
33780;SDS011;20097;50.832;19.100;2022-07-19T12:27:34;3.15;;;2.08;;
33780;SDS011;20097;50.832;19.100;2022-07-19T12:32:39;2.30;;;1.60;;
33780;SDS011;20097;50.832;19.100;2022-07-19T12:37:48;3.25;;;2.13;;
33780;SDS011;20097;50.832;19.100;2022-07-19T12:43:01;6.38;;;2.45;;
33780;SDS011;20097;50.832;19.100;2022-07-19T12:48:06;4.15;;;2.20;;
33780;SDS011;20097;50.832;19.100;2022-07-19T12:53:11;2.95;;;1.98;;
33780;SDS011;20097;50.832;19.100;2022-07-19T12:58:20;2.38;;;1.92;;
33780;SDS011;20097;50.832;19.100;2022-07-19T13:03:38;3.65;;;2.28;;
33780;SDS011;20097;50.832;19.100;2022-07-19T13:08:43;4.53;;;2.30;;
33780;SDS011;20097;50.832;19.100;2022-07-19T13:13:50;4.55;;;2.92;;
33780;SDS011;20097;50.832;19.100;2022-07-19T13:18:54;3.63;;;1.70;;
33780;SDS011;20097;50.832;19.100;2022-07-19T13:23:59;2.25;;;2.05;;
33780;SDS011;20097;50.832;19.100;2022-07-19T13:29:17;5.03;;;1.98;;
33780;SDS011;20097;50.832;19.100;2022-07-19T13:34:21;2.63;;;1.63;;
33780;SDS011;20097;50.832;19.100;2022-07-19T13:39:27;2.97;;;2.08;;
33780;SDS011;20097;50.832;19.100;2022-07-19T13:44:33;2.38;;;1.98;;
33780;SDS011;20097;50.832;19.100;2022-07-19T13:49:37;3.15;;;1.92;;
33780;SDS011;20097;50.832;19.100;2022-07-19T13:54:41;3.30;;;2.10;;
33780;SDS011;20097;50.832;19.100;2022-07-19T13:59:47;3.22;;;2.03;;
33780;SDS011;20097;50.832;19.100;2022-07-19T14:04:52;4.70;;;2.17;;
33780;SDS011;20097;50.832;19.100;2022-07-19T14:09:57;3.88;;;2.10;;
33780;SDS011;20097;50.832;19.100;2022-07-19T14:15:03;4.45;;;2.30;;
33780;SDS011;20097;50.832;19.100;2022-07-19T14:20:09;5.80;;;2.28;;
33780;SDS011;20097;50.832;19.100;2022-07-19T14:25:14;5.55;;;2.10;;
33780;SDS011;20097;50.832;19.100;2022-07-19T14:30:20;2.42;;;2.13;;
33780;SDS011;20097;50.832;19.100;2022-07-19T14:35:27;3.95;;;2.03;;
33780;SDS011;20097;50.832;19.100;2022-07-19T14:40:31;3.67;;;2.25;;
33780;SDS011;20097;50.832;19.100;2022-07-19T14:45:37;3.20;;;2.00;;
33780;SDS011;20097;50.832;19.100;2022-07-19T14:50:42;3.42;;;1.90;;
33780;SDS011;20097;50.832;19.100;2022-07-19T14:55:46;2.83;;;2.38;;
33780;SDS011;20097;50.832;19.100;2022-07-19T15:00:53;3.92;;;2.58;;
33780;SDS011;20097;50.832;19.100;2022-07-19T15:05:58;3.40;;;2.20;;
33780;SDS011;20097;50.832;19.100;2022-07-19T15:11:03;2.80;;;2.10;;
33780;SDS011;20097;50.832;19.100;2022-07-19T15:16:09;2.72;;;2.10;;
33780;SDS011;20097;50.832;19.100;2022-07-19T15:21:13;2.55;;;2.00;;
33780;SDS011;20097;50.832;19.100;2022-07-19T15:26:17;3.05;;;2.20;;
33780;SDS011;20097;50.832;19.100;2022-07-19T15:31:23;5.28;;;2.40;;
33780;SDS011;20097;50.832;19.100;2022-07-19T15:36:28;2.85;;;2.28;;
33780;SDS011;20097;50.832;19.100;2022-07-19T15:41:33;2.92;;;2.38;;
33780;SDS011;20097;50.832;19.100;2022-07-19T15:46:39;3.95;;;2.22;;
33780;SDS011;20097;50.832;19.100;2022-07-19T15:51:50;3.80;;;2.03;;
33780;SDS011;20097;50.832;19.100;2022-07-19T15:56:56;3.60;;;2.53;;
33780;SDS011;20097;50.832;19.100;2022-07-19T16:02:02;2.75;;;2.38;;
33780;SDS011;20097;50.832;19.100;2022-07-19T16:07:07;4.25;;;3.28;;
33780;SDS011;20097;50.832;19.100;2022-07-19T16:12:11;2.65;;;1.98;;
33780;SDS011;20097;50.832;19.100;2022-07-19T16:17:17;3.10;;;2.03;;
33780;SDS011;20097;50.832;19.100;2022-07-19T16:22:21;3.33;;;2.30;;
33780;SDS011;20097;50.832;19.100;2022-07-19T16:27:33;2.65;;;2.13;;
33780;SDS011;20097;50.832;19.100;2022-07-19T16:32:41;2.90;;;2.60;;
33780;SDS011;20097;50.832;19.100;2022-07-19T16:37:46;2.88;;;2.58;;
33780;SDS011;20097;50.832;19.100;2022-07-19T16:42:50;4.22;;;2.83;;
33780;SDS011;20097;50.832;19.100;2022-07-19T16:48:12;4.03;;;2.72;;
33780;SDS011;20097;50.832;19.100;2022-07-19T16:53:17;7.95;;;3.35;;
33780;SDS011;20097;50.832;19.100;2022-07-19T16:58:21;5.85;;;3.15;;
33780;SDS011;20097;50.832;19.100;2022-07-19T17:03:27;4.07;;;3.00;;
33780;SDS011;20097;50.832;19.100;2022-07-19T17:08:34;6.18;;;3.70;;
33780;SDS011;20097;50.832;19.100;2022-07-19T17:13:42;3.80;;;3.40;;
33780;SDS011;20097;50.832;19.100;2022-07-19T17:18:47;6.63;;;3.78;;
33780;SDS011;20097;50.832;19.100;2022-07-19T17:23:52;5.82;;;4.28;;
33780;SDS011;20097;50.832;19.100;2022-07-19T17:28:56;7.13;;;4.22;;
33780;SDS011;20097;50.832;19.100;2022-07-19T17:34:02;8.60;;;4.32;;
33780;SDS011;20097;50.832;19.100;2022-07-19T17:39:07;11.13;;;4.25;;
33780;SDS011;20097;50.832;19.100;2022-07-19T17:44:12;6.85;;;4.20;;
33780;SDS011;20097;50.832;19.100;2022-07-19T17:49:20;6.22;;;3.97;;
33780;SDS011;20097;50.832;19.100;2022-07-19T17:54:24;6.05;;;4.43;;
33780;SDS011;20097;50.832;19.100;2022-07-19T17:59:29;8.82;;;4.60;;
33780;SDS011;20097;50.832;19.100;2022-07-19T18:04:35;6.78;;;4.15;;
33780;SDS011;20097;50.832;19.100;2022-07-19T18:09:39;8.63;;;4.45;;
33780;SDS011;20097;50.832;19.100;2022-07-19T18:14:45;8.75;;;4.60;;
33780;SDS011;20097;50.832;19.100;2022-07-19T18:24:54;7.18;;;4.43;;
33780;SDS011;20097;50.832;19.100;2022-07-19T18:29:59;5.90;;;4.53;;
33780;SDS011;20097;50.832;19.100;2022-07-19T18:40:10;13.52;;;5.15;;
33780;SDS011;20097;50.832;19.100;2022-07-19T18:45:15;8.90;;;4.45;;
33780;SDS011;20097;50.832;19.100;2022-07-19T18:50:22;7.60;;;4.78;;
33780;SDS011;20097;50.832;19.100;2022-07-19T18:55:27;5.85;;;4.30;;
33780;SDS011;20097;50.832;19.100;2022-07-19T19:00:32;10.73;;;5.28;;
33780;SDS011;20097;50.832;19.100;2022-07-19T19:05:38;8.45;;;4.97;;
33780;SDS011;20097;50.832;19.100;2022-07-19T19:10:43;8.68;;;4.78;;
33780;SDS011;20097;50.832;19.100;2022-07-19T19:15:48;10.13;;;5.30;;
33780;SDS011;20097;50.832;19.100;2022-07-19T19:20:54;9.57;;;5.15;;
33780;SDS011;20097;50.832;19.100;2022-07-19T19:25:58;10.18;;;5.85;;
33780;SDS011;20097;50.832;19.100;2022-07-19T19:31:03;10.27;;;6.32;;
33780;SDS011;20097;50.832;19.100;2022-07-19T19:36:09;12.65;;;6.82;;
33780;SDS011;20097;50.832;19.100;2022-07-19T19:41:13;11.52;;;7.25;;
33780;SDS011;20097;50.832;19.100;2022-07-19T19:51:24;11.07;;;6.85;;
33780;SDS011;20097;50.832;19.100;2022-07-19T19:56:28;11.88;;;8.98;;
33780;SDS011;20097;50.832;19.100;2022-07-19T20:01:34;10.88;;;6.43;;
33780;SDS011;20097;50.832;19.100;2022-07-19T20:06:40;8.80;;;6.25;;
33780;SDS011;20097;50.832;19.100;2022-07-19T20:11:45;8.15;;;5.25;;
33780;SDS011;20097;50.832;19.100;2022-07-19T20:21:55;12.20;;;5.90;;
33780;SDS011;20097;50.832;19.100;2022-07-19T20:27:00;9.55;;;6.85;;
33780;SDS011;20097;50.832;19.100;2022-07-19T20:32:04;11.20;;;7.65;;
33780;SDS011;20097;50.832;19.100;2022-07-19T20:37:10;13.35;;;7.65;;
33780;SDS011;20097;50.832;19.100;2022-07-19T20:42:15;11.73;;;7.75;;
33780;SDS011;20097;50.832;19.100;2022-07-19T20:47:21;14.60;;;9.05;;
33780;SDS011;20097;50.832;19.100;2022-07-19T20:52:27;15.23;;;9.02;;
33780;SDS011;20097;50.832;19.100;2022-07-19T20:57:33;12.75;;;8.75;;
33780;SDS011;20097;50.832;19.100;2022-07-19T21:02:38;14.68;;;9.52;;
33780;SDS011;20097;50.832;19.100;2022-07-19T21:07:44;13.15;;;8.90;;
33780;SDS011;20097;50.832;19.100;2022-07-19T21:12:58;14.15;;;9.05;;
33780;SDS011;20097;50.832;19.100;2022-07-19T21:18:03;15.77;;;9.13;;
33780;SDS011;20097;50.832;19.100;2022-07-19T21:23:09;15.10;;;9.23;;
33780;SDS011;20097;50.832;19.100;2022-07-19T21:28:14;13.15;;;9.10;;
33780;SDS011;20097;50.832;19.100;2022-07-19T21:33:19;14.65;;;9.38;;
33780;SDS011;20097;50.832;19.100;2022-07-19T21:38:28;16.10;;;10.35;;
33780;SDS011;20097;50.832;19.100;2022-07-19T21:43:33;18.60;;;11.32;;
33780;SDS011;20097;50.832;19.100;2022-07-19T21:53:43;23.80;;;11.00;;
33780;SDS011;20097;50.832;19.100;2022-07-19T21:58:48;16.02;;;10.00;;
33780;SDS011;20097;50.832;19.100;2022-07-19T22:03:53;25.13;;;10.90;;
33780;SDS011;20097;50.832;19.100;2022-07-19T22:08:59;22.27;;;10.90;;
33780;SDS011;20097;50.832;19.100;2022-07-19T22:14:04;16.38;;;10.68;;
33780;SDS011;20097;50.832;19.100;2022-07-19T22:19:10;18.42;;;11.48;;
33780;SDS011;20097;50.832;19.100;2022-07-19T22:24:15;19.40;;;10.90;;
33780;SDS011;20097;50.832;19.100;2022-07-19T22:29:20;22.35;;;11.65;;
33780;SDS011;20097;50.832;19.100;2022-07-19T22:34:24;21.88;;;11.55;;
33780;SDS011;20097;50.832;19.100;2022-07-19T22:39:31;18.83;;;11.13;;
33780;SDS011;20097;50.832;19.100;2022-07-19T22:44:35;21.30;;;11.75;;
33780;SDS011;20097;50.832;19.100;2022-07-19T22:49:39;28.35;;;14.18;;
33780;SDS011;20097;50.832;19.100;2022-07-19T22:54:45;24.17;;;14.60;;
33780;SDS011;20097;50.832;19.100;2022-07-19T22:59:50;25.65;;;14.55;;
33780;SDS011;20097;50.832;19.100;2022-07-19T23:04:54;29.77;;;14.48;;
33780;SDS011;20097;50.832;19.100;2022-07-19T23:10:00;20.92;;;13.52;;
33780;SDS011;20097;50.832;19.100;2022-07-19T23:15:06;24.70;;;14.57;;
33780;SDS011;20097;50.832;19.100;2022-07-19T23:20:11;25.70;;;15.13;;
33780;SDS011;20097;50.832;19.100;2022-07-19T23:25:17;21.23;;;14.50;;
33780;SDS011;20097;50.832;19.100;2022-07-19T23:30:21;20.92;;;13.45;;
33780;SDS011;20097;50.832;19.100;2022-07-19T23:35:26;23.05;;;15.13;;
33780;SDS011;20097;50.832;19.100;2022-07-19T23:40:31;26.30;;;13.82;;
33780;SDS011;20097;50.832;19.100;2022-07-19T23:45:36;20.98;;;14.27;;
33780;SDS011;20097;50.832;19.100;2022-07-19T23:55:46;25.08;;;13.48;;
